Time;durP1;ratioP1;P1;durP2;ratioP2;P2;SDS_P1;SDS_P2;PMS_P1;PMS_P2;Temp;Humidity;BMP_temperature;BMP_pressure;BME280_temperature;BME280_humidity;BME280_pressure;Samples;Min_cycle;Max_cycle;Signal;HPM_P1;HPM_P2
2021/05/25 00:01:05;;;;;;;7.77;3.57;;;;;7.00;100349.00;;;;10520744;28;20212;-78
2021/05/25 00:06:07;;;;;;;11.10;4.93;;;;;7.00;100358.00;;;;10501422;28;20194;-77
2021/05/25 00:11:09;;;;;;;6.90;4.07;;;;;7.00;100359.00;;;;10486818;28;20228;-77
2021/05/25 00:16:11;;;;;;;12.40;4.30;;;;;7.00;100355.00;;;;10498214;28;20769;-77
2021/05/25 00:21:13;;;;;;;8.50;4.37;;;;;7.20;100353.00;;;;10497081;28;20674;-77
2021/05/25 00:26:15;;;;;;;7.90;3.90;;;;;7.30;100352.00;;;;10477470;28;20194;-77
2021/05/25 00:31:16;;;;;;;6.23;3.60;;;;;7.30;100352.00;;;;10439091;28;20221;-77
2021/05/25 00:36:20;;;;;;;4.97;2.77;;;;;7.20;100359.00;;;;10519597;28;20192;-77
2021/05/25 00:41:22;;;;;;;6.63;3.03;;;;;7.10;100346.00;;;;10518397;28;20231;-77
2021/05/25 00:46:24;;;;;;;5.87;2.97;;;;;7.10;100337.00;;;;10462490;28;20197;-77
2021/05/25 00:51:26;;;;;;;4.57;2.43;;;;;7.00;100355.00;;;;10498676;28;20217;-77
2021/05/25 00:56:29;;;;;;;6.60;2.33;;;;;7.00;100344.00;;;;10485587;28;20212;-77
2021/05/25 01:01:31;;;;;;;5.03;2.40;;;;;6.90;100344.00;;;;10502064;28;20333;-77
2021/05/25 01:06:33;;;;;;;5.03;2.43;;;;;6.90;100339.00;;;;10483116;28;20567;-77
2021/05/25 01:11:38;;;;;;;6.30;2.57;;;;;6.90;100347.00;;;;10496193;28;20845;-77
2021/05/25 01:16:39;;;;;;;5.10;2.10;;;;;7.00;100346.00;;;;10497858;28;20196;-76
2021/05/25 01:21:49;;;;;;;6.57;2.60;;;;;7.00;100340.00;;;;10457816;28;20668;-77
2021/05/25 01:26:51;;;;;;;4.30;2.13;;;;;7.00;100354.00;;;;10486010;28;20262;-77
2021/05/25 01:31:52;;;;;;;5.77;2.70;;;;;7.00;100340.00;;;;10476230;28;20225;-77
2021/05/25 01:36:54;;;;;;;5.03;2.50;;;;;7.00;100342.00;;;;10441841;28;20231;-77
2021/05/25 01:41:56;;;;;;;6.73;2.50;;;;;7.10;100352.00;;;;10454510;28;20241;-77
2021/05/25 01:46:58;;;;;;;3.30;1.97;;;;;7.20;100361.00;;;;10482964;28;20651;-77
2021/05/25 01:52:01;;;;;;;7.47;2.77;;;;;7.30;100352.00;;;;10479198;28;20223;-77
2021/05/25 01:57:03;;;;;;;9.40;3.63;;;;;7.40;100353.00;;;;10507409;28;20679;-77
2021/05/25 02:02:06;;;;;;;6.13;3.30;;;;;7.50;100359.00;;;;10524240;28;20193;-77
2021/05/25 02:07:08;;;;;;;6.57;2.87;;;;;7.50;100351.00;;;;10474235;28;20524;-77
2021/05/25 02:12:18;;;;;;;4.23;2.70;;;;;7.60;100348.00;;;;10504639;28;20782;-77
2021/05/25 02:17:27;;;;;;;10.17;2.77;;;;;7.70;100349.00;;;;10462951;28;20193;-77
2021/05/25 02:22:29;;;;;;;7.97;2.73;;;;;7.80;100358.00;;;;10463702;28;20201;-77
2021/05/25 02:27:32;;;;;;;6.57;2.67;;;;;7.90;100366.00;;;;10466613;28;20867;-77
2021/05/25 02:32:34;;;;;;;5.67;2.87;;;;;7.90;100367.00;;;;10466085;28;20229;-77
2021/05/25 02:37:36;;;;;;;8.87;2.97;;;;;7.90;100371.00;;;;10477373;28;20229;-77
2021/05/25 02:42:38;;;;;;;7.63;2.83;;;;;8.00;100377.00;;;;10443887;28;20206;-77
2021/05/25 02:47:40;;;;;;;6.40;3.13;;;;;8.00;100374.00;;;;10481281;28;20202;-77
2021/05/25 02:52:45;;;;;;;5.30;2.80;;;;;8.00;100373.00;;;;10462065;28;20245;-77
2021/05/25 02:57:47;;;;;;;4.97;3.30;;;;;8.10;100379.00;;;;10430296;28;20205;-77
2021/05/25 03:02:50;;;;;;;6.33;3.70;;;;;8.10;100385.00;;;;10423505;28;20197;-77
2021/05/25 03:07:53;;;;;;;6.93;3.87;;;;;8.10;100393.00;;;;10486737;28;20201;-76
2021/05/25 03:12:56;;;;;;;8.03;4.40;;;;;8.10;100395.00;;;;10485593;28;20280;-76
2021/05/25 03:17:58;;;;;;;5.03;3.63;;;;;8.00;100395.00;;;;10504262;28;20601;-76
2021/05/25 03:23:02;;;;;;;8.80;4.37;;;;;8.00;100407.00;;;;10504296;28;20208;-75
2021/05/25 03:28:05;;;;;;;7.03;3.60;;;;;7.90;100410.00;;;;10503781;28;20208;-75
2021/05/25 03:33:07;;;;;;;6.23;3.47;;;;;7.90;100425.00;;;;10501317;28;20661;-75
2021/05/25 03:38:09;;;;;;;3.67;3.10;;;;;7.80;100422.00;;;;10520406;28;20201;-75
2021/05/25 03:43:11;;;;;;;2.30;1.37;;;;;7.60;100423.00;;;;10503606;28;20229;-75
2021/05/25 03:48:13;;;;;;;1.47;1.30;;;;;7.40;100421.00;;;;10487059;28;20250;-75
2021/05/25 03:53:15;;;;;;;1.47;1.37;;;;;7.40;100422.00;;;;10518059;28;20212;-75
2021/05/25 04:03:37;;;;;;;9.23;5.43;;;;;7.50;100421.00;;;;10486082;28;20712;-75
2021/05/25 04:08:39;;;;;;;10.03;7.30;;;;;7.70;100427.00;;;;10467099;28;20202;-75
2021/05/25 04:13:41;;;;;;;9.90;6.23;;;;;7.90;100438.00;;;;10474294;28;20299;-76
2021/05/25 04:18:44;;;;;;;7.73;6.40;;;;;7.90;100437.00;;;;10444139;28;20198;-76
2021/05/25 04:23:46;;;;;;;7.57;6.53;;;;;8.00;100453.00;;;;10460691;28;20263;-76
2021/05/25 04:28:48;;;;;;;12.47;7.03;;;;;8.10;100453.00;;;;10446088;28;20193;-75
2021/05/25 04:33:50;;;;;;;9.73;6.47;;;;;8.10;100463.00;;;;10462167;28;20225;-76
2021/05/25 04:38:52;;;;;;;7.13;5.87;;;;;8.10;100465.00;;;;10478775;28;20247;-76
2021/05/25 04:43:54;;;;;;;8.43;4.97;;;;;8.20;100478.00;;;;10470206;28;20662;-76
2021/05/25 04:48:56;;;;;;;7.47;5.17;;;;;8.20;100493.00;;;;10465919;28;20253;-76
2021/05/25 04:53:58;;;;;;;6.87;4.97;;;;;8.20;100500.00;;;;10497830;28;20223;-76
2021/05/25 04:58:59;;;;;;;10.17;7.93;;;;;8.20;100512.00;;;;10481145;28;20200;-76
2021/05/25 05:04:01;;;;;;;13.07;9.23;;;;;8.30;100518.00;;;;10459027;28;20205;-76
2021/05/25 05:09:05;;;;;;;11.33;9.43;;;;;8.40;100514.00;;;;10482637;28;20259;-76
2021/05/25 05:14:07;;;;;;;15.00;10.13;;;;;8.50;100532.00;;;;10483185;28;20228;-76
2021/05/25 05:19:09;;;;;;;13.60;12.10;;;;;8.50;100537.00;;;;10463215;28;20196;-76
2021/05/25 05:24:12;;;;;;;18.13;11.30;;;;;8.60;100538.00;;;;10516556;28;20200;-76
2021/05/25 05:29:15;;;;;;;15.80;13.03;;;;;8.60;100544.00;;;;10483230;28;20250;-76
2021/05/25 05:34:17;;;;;;;18.17;11.20;;;;;8.70;100544.00;;;;10480692;28;20228;-76
2021/05/25 05:39:19;;;;;;;14.37;11.30;;;;;8.90;100564.00;;;;10493879;28;20940;-76
2021/05/25 05:44:20;;;;;;;14.93;11.93;;;;;9.40;100568.00;;;;10516172;28;20667;-76
2021/05/25 05:49:23;;;;;;;15.67;11.00;;;;;9.70;100576.00;;;;10474360;28;20255;-76
2021/05/25 05:54:25;;;;;;;13.63;11.87;;;;;9.80;100579.00;;;;10466134;28;20232;-76
2021/05/25 05:59:27;;;;;;;14.70;12.70;;;;;9.40;100586.00;;;;10492747;28;20198;-76
2021/05/25 06:04:29;;;;;;;13.40;11.23;;;;;9.30;100589.00;;;;10494742;28;20212;-76
2021/05/25 06:09:31;;;;;;;12.30;9.07;;;;;9.20;100604.00;;;;10499060;28;20197;-76
2021/05/25 06:14:33;;;;;;;13.33;9.80;;;;;9.30;100611.00;;;;10481731;28;20274;-76
2021/05/25 06:19:35;;;;;;;13.60;10.00;;;;;9.20;100627.00;;;;10495447;28;20211;-76
2021/05/25 06:24:38;;;;;;;10.63;7.50;;;;;9.10;100634.00;;;;10499275;28;20209;-76
2021/05/25 06:29:40;;;;;;;8.10;6.07;;;;;8.90;100621.00;;;;10499003;28;20193;-75
2021/05/25 06:34:42;;;;;;;8.50;6.93;;;;;8.90;100628.00;;;;10499217;28;20297;-76
2021/05/25 06:39:43;;;;;;;6.13;5.50;;;;;8.80;100660.00;;;;10473192;28;20225;-76
2021/05/25 06:44:46;;;;;;;7.47;6.50;;;;;9.20;100667.00;;;;10494210;28;20207;-76
2021/05/25 06:49:48;;;;;;;10.27;6.80;;;;;9.60;100673.00;;;;10481251;28;20217;-76
2021/05/25 06:54:50;;;;;;;7.80;6.97;;;;;9.90;100693.00;;;;10475966;28;20231;-76
2021/05/25 06:59:53;;;;;;;11.27;7.03;;;;;10.10;100705.00;;;;10518730;28;20205;-77
2021/05/25 07:04:56;;;;;;;7.07;5.57;;;;;9.70;100709.00;;;;10476293;28;20287;-77
2021/05/25 07:09:58;;;;;;;10.60;6.00;;;;;10.20;100710.00;;;;10495454;28;20198;-77
2021/05/25 07:15:00;;;;;;;8.50;6.90;;;;;11.10;100732.00;;;;10469148;28;20692;-77
2021/05/25 07:20:03;;;;;;;7.83;6.10;;;;;11.80;100732.00;;;;10423955;28;20252;-77
2021/05/25 07:25:06;;;;;;;7.20;6.10;;;;;12.70;100750.00;;;;10467531;28;20222;-77
2021/05/25 07:30:09;;;;;;;8.63;4.87;;;;;12.40;100761.00;;;;10517085;28;20201;-78
2021/05/25 07:35:12;;;;;;;6.60;5.10;;;;;11.30;100770.00;;;;10521836;28;20315;-77
2021/05/25 07:40:16;;;;;;;7.90;5.00;;;;;11.30;100789.00;;;;10491531;28;20209;-77
2021/05/25 07:45:18;;;;;;;9.33;5.73;;;;;11.50;100790.00;;;;10478242;28;20206;-77
2021/05/25 07:50:20;;;;;;;8.70;6.73;;;;;12.10;100808.00;;;;10480677;28;20193;-77
2021/05/25 07:55:24;;;;;;;8.03;4.83;;;;;12.40;100812.00;;;;10472186;28;20278;-78
2021/05/25 08:00:27;;;;;;;16.70;5.50;;;;;12.60;100823.00;;;;10503267;28;20193;-77
2021/05/25 08:05:31;;;;;;;9.87;5.27;;;;;12.80;100839.00;;;;10505494;28;20290;-77
2021/05/25 08:10:32;;;;;;;8.17;5.37;;;;;13.00;100839.00;;;;10490244;28;20591;-78
2021/05/25 08:15:36;;;;;;;5.57;4.17;;;;;14.10;100857.00;;;;10514972;28;20584;-78
2021/05/25 08:20:38;;;;;;;5.13;3.40;;;;;14.50;100863.00;;;;10471933;28;20226;-78
2021/05/25 08:26:05;;;;;;;4.77;3.07;;;;;16.40;100872.00;;;;10524635;28;20250;-76
2021/05/25 08:31:07;;;;;;;7.57;3.23;;;;;15.60;100866.00;;;;10445139;28;20193;-75
2021/05/25 08:36:09;;;;;;;5.70;3.07;;;;;16.30;100877.00;;;;10459515;28;20202;-75
2021/05/25 08:41:12;;;;;;;7.73;2.70;;;;;16.20;100880.00;;;;10458313;28;20659;-75
2021/05/25 08:46:14;;;;;;;3.90;1.90;;;;;16.90;100874.00;;;;10476808;28;20209;-78
2021/05/25 08:51:16;;;;;;;6.40;2.50;;;;;17.20;100874.00;;;;10476153;28;20308;-75
2021/05/25 08:56:18;;;;;;;8.65;2.13;;;;;17.50;100879.00;;;;10474626;28;20238;-75
2021/05/25 09:01:20;;;;;;;5.65;1.95;;;;;18.30;100857.00;;;;10458561;28;20205;-75
2021/05/25 09:06:42;;;;;;;5.05;1.58;;;;;18.30;100859.00;;;;10480712;28;20205;-75
2021/05/25 09:12:03;;;;;;;4.43;1.48;;;;;17.80;100871.00;;;;10483777;28;20212;-75
2021/05/25 09:17:20;;;;;;;5.53;1.40;;;;;17.20;100875.00;;;;10501075;28;20299;-75
2021/05/25 09:22:31;;;;;;;3.20;1.40;;;;;16.60;100868.00;;;;10499017;28;20282;-75
2021/05/25 09:27:39;;;;;;;5.07;1.70;;;;;18.00;100858.00;;;;10472215;28;20202;-75
2021/05/25 09:32:45;;;;;;;3.78;1.60;;;;;18.50;100847.00;;;;10454270;28;20755;-76
2021/05/25 09:37:50;;;;;;;3.28;1.38;;;;;18.70;100833.00;;;;10496681;28;20193;-75
2021/05/25 09:42:55;;;;;;;4.32;1.40;;;;;18.90;100837.00;;;;10499837;28;20194;-75
2021/05/25 09:48:03;;;;;;;9.07;1.73;;;;;16.70;100874.00;;;;10498045;28;20200;-75
2021/05/25 09:53:20;;;;;;;1.90;1.10;;;;;14.90;100889.00;;;;10504797;28;20212;-76
2021/05/25 09:58:32;;;;;;;5.30;1.37;;;;;13.40;100918.00;;;;10513578;28;20201;-75
2021/05/25 10:03:50;;;;;;;5.00;1.50;;;;;13.60;100907.00;;;;10482908;28;20262;-78
2021/05/25 10:08:52;;;;;;;7.40;1.70;;;;;13.90;100905.00;;;;10467763;28;20230;-78
2021/05/25 10:13:54;;;;;;;3.83;1.77;;;;;13.90;100917.00;;;;10477551;28;20374;-77
2021/05/25 10:19:24;;;;;;;7.20;2.30;;;;;14.70;100928.00;;;;10490596;28;20207;-77
2021/05/25 10:24:25;;;;;;;7.30;1.93;;;;;14.20;100974.00;;;;10506095;28;20830;-77
2021/05/25 10:29:27;;;;;;;2.80;0.97;;;;;12.30;101005.00;;;;10489106;28;20208;-77
2021/05/25 10:34:34;;;;;;;2.33;0.93;;;;;11.00;101016.00;;;;10506449;28;20225;-76
2021/05/25 10:39:41;;;;;;;3.37;0.97;;;;;10.70;100988.00;;;;10522651;28;20261;-76
2021/05/25 10:44:44;;;;;;;3.30;0.93;;;;;11.20;100987.00;;;;10493752;28;20201;-76
2021/05/25 10:49:53;;;;;;;3.53;1.17;;;;;11.40;100986.00;;;;10479144;28;20232;-78
2021/05/25 10:54:57;;;;;;;3.87;1.20;;;;;10.90;100985.00;;;;10518984;28;20224;-76
2021/05/25 11:00:34;;;;;;;3.13;1.30;;;;;10.90;100980.00;;;;10503184;28;20197;-76
2021/05/25 11:05:39;;;;;;;2.30;1.30;;;;;12.10;100967.00;;;;10473522;28;20214;-76
2021/05/25 11:10:46;;;;;;;2.10;1.20;;;;;13.40;100979.00;;;;10424679;28;20893;-77
2021/05/25 11:16:20;;;;;;;4.97;2.00;;;;;14.10;100981.00;;;;10422882;28;20222;-77
2021/05/25 11:21:41;;;;;;;4.17;1.33;;;;;13.40;100991.00;;;;10531456;28;20232;-77
2021/05/25 11:26:57;;;;;;;4.80;1.67;;;;;12.60;100995.00;;;;10517600;28;20208;-77
2021/05/25 11:32:05;;;;;;;4.67;1.57;;;;;12.90;100983.00;;;;10520264;28;20250;-77
2021/05/25 11:37:14;;;;;;;4.37;1.70;;;;;12.80;100975.00;;;;10500538;28;20193;-77
2021/05/25 11:42:22;;;;;;;5.07;1.80;;;;;12.40;100966.00;;;;10502979;28;20231;-77
2021/05/25 11:47:24;;;;;;;5.17;1.73;;;;;12.90;100971.00;;;;10504031;28;20193;-76
2021/05/25 11:52:34;;;;;;;6.87;1.90;;;;;15.20;100962.00;;;;10468609;28;20269;-76
2021/05/25 11:57:41;;;;;;;8.30;1.90;;;;;16.80;100969.00;;;;10472136;28;20212;-77
2021/05/25 12:02:45;;;;;;;5.93;1.67;;;;;17.40;100954.00;;;;10477615;28;20241;-75
2021/05/25 12:07:50;;;;;;;3.80;1.77;;;;;18.40;100944.00;;;;10502307;28;20270;-75
2021/05/25 12:12:53;;;;;;;5.10;1.60;;;;;19.30;100933.00;;;;10482864;28;20290;-75
2021/05/25 12:17:57;;;;;;;6.95;1.38;;;;;18.40;100937.00;;;;10488806;28;20201;-74
2021/05/25 12:23:15;;;;;;;10.40;1.80;;;;;17.90;100919.00;;;;10491779;28;20197;-75
2021/05/25 12:28:19;;;;;;;4.95;1.08;;;;;18.30;100933.00;;;;10484948;28;20292;-75
2021/05/25 12:33:30;;;;;;;2.80;0.90;;;;;18.80;100932.00;;;;10498410;28;20245;-75
2021/05/25 12:38:32;;;;;;;2.80;1.42;;;;;19.10;100923.00;;;;10484015;28;20197;-75
2021/05/25 12:43:34;;;;;;;2.35;0.93;;;;;19.20;100925.00;;;;10501084;28;20254;-75
2021/05/25 12:48:42;;;;;;;2.83;0.93;;;;;18.60;100921.00;;;;10500916;28;20196;-75
2021/05/25 12:53:54;;;;;;;2.97;1.08;;;;;18.10;100928.00;;;;10495625;28;20997;-75
2021/05/25 12:58:57;;;;;;;5.28;1.10;;;;;18.60;100913.00;;;;10494494;28;20201;-75
2021/05/25 13:04:02;;;;;;;6.25;1.52;;;;;18.30;100906.00;;;;10446224;28;20199;-75
2021/05/25 13:09:13;;;;;;;6.82;1.40;;;;;17.90;100912.00;;;;10419689;28;20837;-75
2021/05/25 13:14:19;;;;;;;5.80;1.50;;;;;16.30;100924.00;;;;10431835;28;20244;-74
2021/05/25 13:19:43;;;;;;;5.47;1.50;;;;;14.50;100945.00;;;;10501462;28;20720;-76
2021/05/25 13:25:02;;;;;;;2.30;1.00;;;;;12.90;100969.00;;;;10482896;28;20296;-75
2021/05/25 13:30:08;;;;;;;6.37;1.60;;;;;12.50;100953.00;;;;10516240;28;20248;-77
2021/05/25 13:35:10;;;;;;;2.60;1.10;;;;;16.00;100939.00;;;;10516720;28;20251;-78
2021/05/25 13:40:12;;;;;;;3.10;1.30;;;;;19.80;100925.00;;;;10487615;28;20208;-78
2021/05/25 13:45:15;;;;;;;5.07;1.73;;;;;17.00;100944.00;;;;10501734;28;20204;-78
2021/05/25 13:50:24;;;;;;;4.37;1.60;;;;;14.80;100960.00;;;;10486724;28;20664;-75
2021/05/25 13:55:28;;;;;;;5.43;1.77;;;;;13.90;100969.00;;;;10506108;28;20281;-75
2021/05/25 14:00:50;;;;;;;4.00;1.33;;;;;13.90;100964.00;;;;10484725;28;20209;-78
2021/05/25 14:05:52;;;;;;;3.67;1.00;;;;;15.40;100956.00;;;;10487703;28;20255;-78
2021/05/25 14:10:55;;;;;;;2.33;1.00;;;;;16.50;100965.00;;;;10523535;28;20188;-78
2021/05/25 14:15:57;;;;;;;6.63;1.60;;;;;16.40;100956.00;;;;10477815;28;20974;-76
2021/05/25 14:20:59;;;;;;;6.20;1.83;;;;;16.60;100950.00;;;;10504422;28;20200;-76
2021/05/25 14:26:02;;;;;;;5.87;2.10;;;;;17.20;100956.00;;;;10467048;28;20224;-77
2021/05/25 14:31:03;;;;;;;5.27;1.60;;;;;16.00;100947.00;;;;10487162;28;20254;-77
2021/05/25 14:36:06;;;;;;;3.83;1.40;;;;;14.50;100955.00;;;;10488346;28;20231;-76
2021/05/25 14:41:08;;;;;;;3.00;1.50;;;;;12.70;101002.00;;;;10496865;28;20189;-76
2021/05/25 14:46:10;;;;;;;2.47;1.00;;;;;12.30;100985.00;;;;10455619;28;20205;-76
2021/05/25 14:51:12;;;;;;;2.03;1.03;;;;;11.70;101005.00;;;;10483990;28;20563;-77
2021/05/25 14:56:17;;;;;;;3.30;1.03;;;;;11.40;100993.00;;;;10472632;28;20221;-76
2021/05/25 15:01:21;;;;;;;4.57;1.30;;;;;11.40;100996.00;;;;10508758;28;20213;-76
2021/05/25 15:06:28;;;;;;;2.27;1.27;;;;;11.30;101003.00;;;;10457098;28;20251;-76
2021/05/25 15:11:30;;;;;;;2.77;1.27;;;;;11.20;100997.00;;;;10484172;28;20210;-77
2021/05/25 15:16:32;;;;;;;4.53;1.40;;;;;11.00;100999.00;;;;10455756;28;20225;-77
2021/05/25 15:21:34;;;;;;;4.80;2.00;;;;;10.90;100997.00;;;;10491921;28;20189;-77
2021/05/25 15:26:37;;;;;;;5.73;1.80;;;;;11.40;100990.00;;;;10515385;28;20938;-77
2021/05/25 15:31:39;;;;;;;5.97;1.73;;;;;12.50;100991.00;;;;10501100;28;20256;-77
2021/05/25 15:36:40;;;;;;;3.63;1.90;;;;;14.50;100995.00;;;;10502896;28;20224;-77
2021/05/25 15:41:42;;;;;;;5.70;2.10;;;;;14.20;100985.00;;;;10503760;28;20246;-76
2021/05/25 15:46:44;;;;;;;5.50;1.80;;;;;15.70;100995.00;;;;10466699;28;20224;-77
2021/05/25 15:51:46;;;;;;;6.80;2.30;;;;;15.20;100983.00;;;;10466355;28;20736;-77
2021/05/25 15:56:49;;;;;;;4.53;1.60;;;;;14.70;100985.00;;;;10501945;28;20220;-77
2021/05/25 16:01:50;;;;;;;7.67;2.20;;;;;15.10;100985.00;;;;10475254;28;20208;-77
2021/05/25 16:06:52;;;;;;;7.27;2.07;;;;;15.60;100992.00;;;;10470712;28;20209;-77
2021/05/25 16:11:54;;;;;;;8.27;2.20;;;;;15.80;100978.00;;;;10461130;28;20721;-77
2021/05/25 16:16:59;;;;;;;6.23;2.10;;;;;15.50;100979.00;;;;10479732;28;20221;-77
2021/05/25 16:22:01;;;;;;;6.27;1.77;;;;;15.20;100969.00;;;;10493437;28;20275;-77
2021/05/25 16:27:06;;;;;;;5.23;2.17;;;;;13.90;100964.00;;;;10464130;28;20483;-77
2021/05/25 16:32:08;;;;;;;7.70;2.03;;;;;12.90;100986.00;;;;10498929;28;20232;-77
2021/05/25 16:37:10;;;;;;;7.40;2.30;;;;;12.40;100997.00;;;;10490921;28;21020;-78
2021/05/25 16:42:13;;;;;;;4.10;1.53;;;;;12.50;100989.00;;;;10506246;28;20770;-77
2021/05/25 16:47:15;;;;;;;6.17;1.60;;;;;12.70;101000.00;;;;10470139;28;20668;-78
2021/05/25 16:52:17;;;;;;;9.93;1.87;;;;;12.80;100997.00;;;;10458451;28;20201;-77
2021/05/25 16:57:19;;;;;;;5.40;1.30;;;;;12.60;101001.00;;;;10458117;28;20197;-77
2021/05/25 17:02:48;;;;;;;5.07;1.70;;;;;12.20;101002.00;;;;10450977;28;20533;-77
2021/05/25 17:08:06;;;;;;;6.60;1.60;;;;;12.00;100995.00;;;;10501576;28;20277;-77
2021/05/25 17:14:24;;;;;;;7.70;2.03;;;;;11.90;100998.00;;;;10443858;28;20328;-77
2021/05/25 17:18:35;;;;;;;12.87;2.53;;;;;11.90;100999.00;;;;10436210;28;20196;-76
2021/05/25 17:23:38;;;;;;;8.40;2.37;;;;;12.20;101003.00;;;;10485197;28;20280;-77
2021/05/25 17:28:40;;;;;;;7.40;2.27;;;;;12.60;101008.00;;;;10455404;28;20194;-77
2021/05/25 17:33:42;;;;;;;12.23;2.93;;;;;13.30;101009.00;;;;10465524;28;20248;-77
2021/05/25 17:38:46;;;;;;;5.97;2.13;;;;;13.50;100997.00;;;;10475637;28;20599;-77
2021/05/25 17:43:48;;;;;;;7.80;2.37;;;;;13.70;100993.00;;;;10465697;28;20206;-77
2021/05/25 17:48:50;;;;;;;8.53;2.27;;;;;13.10;101001.00;;;;10507789;28;20204;-77
2021/05/25 17:53:51;;;;;;;6.70;1.97;;;;;12.40;101004.00;;;;10445715;28;20695;-77
2021/05/25 17:58:53;;;;;;;9.43;2.40;;;;;11.80;101015.00;;;;10457273;28;20693;-78
2021/05/25 18:03:56;;;;;;;7.07;2.70;;;;;11.20;101039.00;;;;10467531;28;20209;-78
2021/05/25 18:09:02;;;;;;;3.67;1.30;;;;;10.70;101046.00;;;;10491563;28;20197;-78
2021/05/25 18:14:04;;;;;;;1.23;0.77;;;;;10.10;101028.00;;;;10490319;28;20213;-78
2021/05/25 18:19:06;;;;;;;2.77;1.20;;;;;9.90;101035.00;;;;10454321;28;20255;-77
2021/05/25 18:24:10;;;;;;;2.43;1.20;;;;;9.80;101029.00;;;;10462163;28;20217;-77
2021/05/25 18:29:12;;;;;;;3.17;1.43;;;;;9.90;101016.00;;;;10475544;28;20272;-77
2021/05/25 18:34:20;;;;;;;3.60;1.53;;;;;9.90;101019.00;;;;10476318;28;20235;-77
2021/05/25 18:39:57;;;;;;;4.00;1.60;;;;;10.00;101012.00;;;;10497330;28;20961;-77
2021/05/25 18:44:59;;;;;;;5.07;2.13;;;;;10.00;101011.00;;;;10449387;28;20204;-77
2021/05/25 18:50:04;;;;;;;2.53;1.77;;;;;10.00;101005.00;;;;10474237;28;20202;-77
2021/05/25 18:55:06;;;;;;;2.70;1.57;;;;;10.00;101034.00;;;;10487133;28;20221;-77
2021/05/25 19:00:12;;;;;;;4.90;1.90;;;;;9.90;101024.00;;;;10468797;28;20209;-77
2021/05/25 19:05:15;;;;;;;4.17;2.40;;;;;9.70;101031.00;;;;10481338;28;20205;-77
2021/05/25 19:10:18;;;;;;;6.10;2.90;;;;;9.60;101034.00;;;;10483115;28;20231;-77
2021/05/25 19:15:20;;;;;;;4.47;2.93;;;;;9.60;101043.00;;;;10484626;28;20711;-77
2021/05/25 19:25:29;;;;;;;6.40;2.70;;;;;9.60;101050.00;;;;10475570;28;20258;-80
2021/05/25 19:30:46;;;;;;;3.03;1.47;;;;;9.30;101043.00;;;;10460711;28;20239;-76
2021/05/25 19:35:49;;;;;;;6.07;2.30;;;;;9.00;101038.00;;;;10473004;28;20220;-76
2021/05/25 19:40:51;;;;;;;4.00;1.97;;;;;8.80;101009.00;;;;10472700;28;20259;-76
2021/05/25 19:45:53;;;;;;;3.80;2.80;;;;;8.80;100999.00;;;;10483447;28;20198;-76
2021/05/25 19:50:58;;;;;;;6.47;3.27;;;;;8.90;100993.00;;;;10476428;28;20250;-77
2021/05/25 19:56:01;;;;;;;4.53;2.93;;;;;8.90;100984.00;;;;10477053;28;20249;-77
2021/05/25 20:01:03;;;;;;;5.97;3.97;;;;;8.90;100991.00;;;;10478926;28;20193;-77
2021/05/25 20:06:05;;;;;;;7.10;4.77;;;;;8.90;100991.00;;;;10435304;28;20213;-77
2021/05/25 20:11:07;;;;;;;4.57;3.53;;;;;8.90;100991.00;;;;10489577;28;20208;-77
2021/05/25 20:16:09;;;;;;;7.40;3.60;;;;;9.00;100991.00;;;;10447188;28;20227;-77
2021/05/25 20:21:11;;;;;;;7.90;3.97;;;;;9.00;100988.00;;;;10478881;28;20205;-77
2021/05/25 20:26:14;;;;;;;8.57;5.10;;;;;8.90;100986.00;;;;10477984;28;20201;-78
2021/05/25 20:31:16;;;;;;;11.03;4.87;;;;;8.90;100980.00;;;;10517860;28;20201;-78
2021/05/25 20:41:45;;;;;;;13.07;6.60;;;;;9.00;100977.00;;;;10517219;28;20196;-78
2021/05/25 20:46:47;;;;;;;10.80;6.70;;;;;9.00;100979.00;;;;10476801;28;20212;-78
2021/05/25 20:51:49;;;;;;;14.67;6.80;;;;;8.90;100964.00;;;;10502727;28;20209;-78
2021/05/25 20:56:50;;;;;;;16.20;6.70;;;;;8.80;100973.00;;;;10461807;28;20220;-78
2021/05/25 21:01:52;;;;;;;14.47;6.30;;;;;8.80;100973.00;;;;10499475;28;20201;-78
2021/05/25 21:06:54;;;;;;;19.03;6.20;;;;;8.80;100971.00;;;;10480427;28;20209;-78
2021/05/25 21:11:56;;;;;;;16.30;6.33;;;;;8.80;100956.00;;;;10461869;28;20205;-78
2021/05/25 21:16:58;;;;;;;16.40;5.80;;;;;8.90;100955.00;;;;10463701;28;20320;-78
2021/05/25 21:22:00;;;;;;;24.50;6.43;;;;;8.90;100956.00;;;;10461498;28;20201;-78
2021/05/25 21:27:02;;;;;;;19.70;5.83;;;;;8.90;100959.00;;;;10490539;28;20205;-78
2021/05/25 21:32:04;;;;;;;20.63;6.40;;;;;9.00;100959.00;;;;10466732;28;20224;-78
2021/05/25 21:37:06;;;;;;;31.17;5.77;;;;;9.00;100952.00;;;;10448948;28;20739;-78
2021/05/25 21:42:08;;;;;;;12.87;5.33;;;;;9.10;100947.00;;;;10488825;28;20209;-78
2021/05/25 21:47:10;;;;;;;20.57;6.23;;;;;9.10;100941.00;;;;10506156;28;20223;-78
2021/05/25 21:52:12;;;;;;;13.10;6.13;;;;;9.10;100942.00;;;;10509516;28;20196;-78
2021/05/25 21:57:14;;;;;;;15.67;5.53;;;;;9.10;100936.00;;;;10461063;28;20229;-78
2021/05/25 22:02:16;;;;;;;14.77;5.67;;;;;9.00;100929.00;;;;10463709;28;20232;-78
2021/05/25 22:07:18;;;;;;;21.67;6.10;;;;;9.00;100927.00;;;;10455061;28;20194;-78
2021/05/25 22:12:20;;;;;;;15.90;5.93;;;;;9.00;100924.00;;;;10452470;28;20588;-78
2021/05/25 22:17:22;;;;;;;19.07;5.93;;;;;8.90;100926.00;;;;10443717;28;20278;-78
2021/05/25 22:22:24;;;;;;;19.97;5.57;;;;;8.90;100919.00;;;;10502370;28;20196;-78
2021/05/25 22:27:26;;;;;;;15.57;5.37;;;;;8.90;100915.00;;;;10458983;28;20610;-78
2021/05/25 22:32:28;;;;;;;13.97;5.70;;;;;8.90;100917.00;;;;10473627;28;20291;-78
2021/05/25 22:37:29;;;;;;;19.27;6.67;;;;;8.90;100921.00;;;;10519388;28;20213;-78
2021/05/25 22:42:32;;;;;;;17.70;6.07;;;;;8.90;100923.00;;;;10502714;28;20207;-78
2021/05/25 22:47:35;;;;;;;14.43;6.00;;;;;8.90;100920.00;;;;10514074;28;20313;-78
2021/05/25 22:52:38;;;;;;;14.40;6.00;;;;;8.90;100911.00;;;;10500211;28;20665;-78
2021/05/25 22:57:41;;;;;;;15.73;5.37;;;;;8.90;100911.00;;;;10513253;28;20285;-78
2021/05/25 23:02:49;;;;;;;19.67;6.20;;;;;8.90;100911.00;;;;10518014;28;20193;-78
2021/05/25 23:07:54;;;;;;;20.67;6.60;;;;;8.80;100904.00;;;;10515882;28;20205;-78
2021/05/25 23:12:56;;;;;;;18.20;6.13;;;;;8.80;100902.00;;;;10536673;28;20197;-78
2021/05/25 23:17:59;;;;;;;17.60;5.40;;;;;8.80;100892.00;;;;10502940;28;20216;-78
2021/05/25 23:23:02;;;;;;;14.53;6.20;;;;;8.90;100893.00;;;;10521731;28;20200;-78
2021/05/25 23:28:05;;;;;;;22.33;5.97;;;;;8.80;100899.00;;;;10501692;28;20656;-78
2021/05/25 23:33:09;;;;;;;26.40;6.20;;;;;8.80;100884.00;;;;10519493;28;20230;-78
2021/05/25 23:38:10;;;;;;;16.27;5.50;;;;;8.70;100891.00;;;;10442850;28;20256;-77
2021/05/25 23:43:12;;;;;;;13.17;5.53;;;;;8.70;100887.00;;;;10427415;28;20195;-78
2021/05/25 23:48:14;;;;;;;18.43;5.70;;;;;8.70;100893.00;;;;10412730;28;20277;-77
2021/05/25 23:53:16;;;;;;;16.80;5.27;;;;;8.70;100885.00;;;;10445000;28;20198;-77
2021/05/25 23:58:28;;;;;;;17.20;5.40;;;;;8.70;100883.00;;;;10477728;28;20207;-77
